»·PEaware :: GPD250 KGRI-0TE5

GPD250 :: KGRI-0TE5

FLIGHT INFORMATION

Flight Status: Arrived
Operator: Unknown
More flights by this operator :: More flights under this callsign
Pilot: Andrew J. (13363)
Aircraft: PILATUS PC-12 EAGLE
(PC12)
More flights by this aircraft type
Origin: KGRI Central Nebraska Regl
United States
Destination: 0TE5 Santa Maria Ranch
United States
More flights between these airports :: More routes between these airports
Route: GRI CRUSR LLO NLD
File this flight plan on PilotEdge
Remarks:
Altitude:
(Current/Filed)
19,000ft
Speed:
(Current/Filed)
275kts
Departed: 05-Feb-18 11:15 AM
Arrived: 05-Feb-18 04:44 PM
Distance/Time
Traveled:
813nm/5:29
Distance/Time
To Go:
Arrived

Flight Plot

Page will automatically refresh every two minutes.

Flight plan parsing failed; only flown route is shown


Map Options




Map Legend


Flown Route
Filed Route
Departure Airport
Arrival Airport
Navaid (VOR, NDB)
Fix

Horizontal Profiles

Position Reports

Time Latitude Longitude Heading Altitude Ground
Speed
05-Feb-18 11:12 40.975232 -98.318301 89 1844ft 0kts
05-Feb-18 11:13 40.975232 -98.318301 89 1844ft 0kts
05-Feb-18 11:13 40.975232 -98.318301 89 1844ft 0kts
05-Feb-18 11:14 40.975232 -98.318301 89 1844ft 0kts
05-Feb-18 11:16 40.975232 -98.318301 89 1844ft 0kts
05-Feb-18 11:17 40.975232 -98.318301 89 1844ft 0kts
05-Feb-18 11:17 40.975232 -98.318301 90 1844ft 0kts
05-Feb-18 11:18 40.975232 -98.318300 88 1844ft 0kts
05-Feb-18 11:20 40.975111 -98.316974 64 1841ft 14kts
05-Feb-18 11:20 40.977093 -98.316208 95 1841ft 5kts
05-Feb-18 11:21 40.974135 -98.314819 180 1841ft 75kts
05-Feb-18 11:23 40.937519 -98.317888 196 3467ft 144kts
05-Feb-18 11:23 40.908192 -98.321653 187 5555ft 127kts
05-Feb-18 11:24 40.869250 -98.325696 187 7471ft 149kts
05-Feb-18 11:25 40.827557 -98.330119 187 9510ft 154kts
05-Feb-18 11:26 40.783198 -98.334842 197 11390ft 166kts
05-Feb-18 11:27 40.737438 -98.339509 199 13516ft 159kts
05-Feb-18 11:28 40.700633 -98.343587 211 15821ft 126kts
05-Feb-18 11:29 40.667519 -98.347116 204 17270ft 148kts
05-Feb-18 11:30 40.622933 -98.351837 200 18879ft 177kts
05-Feb-18 11:31 40.570805 -98.357121 199 20465ft 195kts
05-Feb-18 11:32 40.516580 -98.362668 200 22145ft 198kts
05-Feb-18 11:33 40.458753 -98.369032 197 22997ft 236kts
05-Feb-18 11:34 40.387537 -98.376069 195 22992ft 271kts
05-Feb-18 11:35 40.316399 -98.383307 197 22987ft 239kts
05-Feb-18 11:36 40.253548 -98.389741 198 22987ft 217kts
05-Feb-18 11:37 40.195341 -98.395838 199 22988ft 205kts
05-Feb-18 11:38 40.139245 -98.401736 199 22989ft 200kts
05-Feb-18 11:39 40.084163 -98.407463 199 22989ft 198kts
05-Feb-18 11:40 40.029612 -98.413098 199 22989ft 197kts
05-Feb-18 11:41 39.975173 -98.418699 199 22989ft 196kts
05-Feb-18 11:42 39.920953 -98.424262 199 22989ft 196kts
05-Feb-18 11:43 39.866936 -98.429790 199 22989ft 195kts
05-Feb-18 11:44 39.812786 -98.435319 199 22989ft 195kts
05-Feb-18 11:45 39.759158 -98.440770 200 23015ft 194kts
05-Feb-18 11:46 39.705344 -98.446277 200 23016ft 194kts
05-Feb-18 11:47 39.651629 -98.451742 200 23016ft 194kts
05-Feb-18 11:48 39.597832 -98.457201 200 23016ft 194kts
05-Feb-18 11:49 39.544132 -98.462645 200 23015ft 194kts
05-Feb-18 11:50 39.490087 -98.468146 200 23015ft 196kts
05-Feb-18 11:51 39.436069 -98.473581 201 23015ft 195kts
05-Feb-18 11:52 39.381242 -98.479133 200 23016ft 200kts
05-Feb-18 11:53 39.325432 -98.484727 200 23015ft 202kts
05-Feb-18 11:54 39.269292 -98.490349 200 23015ft 203kts
05-Feb-18 11:55 39.212847 -98.496006 200 23015ft 204kts
05-Feb-18 11:56 39.156148 -98.501726 200 22962ft 206kts
05-Feb-18 11:57 39.099643 -98.507316 200 22961ft 203kts
05-Feb-18 11:58 39.043146 -98.512997 200 22962ft 204kts
05-Feb-18 11:59 38.986718 -98.518625 200 22961ft 203kts
05-Feb-18 12:00 38.930454 -98.524230 200 22961ft 203kts
05-Feb-18 12:01 38.874690 -98.529774 200 22960ft 203kts
05-Feb-18 12:02 38.818427 -98.535354 200 22960ft 203kts
05-Feb-18 12:03 38.762258 -98.540901 199 22961ft 201kts
05-Feb-18 12:04 38.706522 -98.546442 200 22960ft 202kts
05-Feb-18 12:05 38.650371 -98.552002 200 22960ft 202kts
05-Feb-18 12:06 38.594424 -98.557519 200 22960ft 202kts
05-Feb-18 12:07 38.538355 -98.563040 200 22960ft 203kts
05-Feb-18 12:08 38.482071 -98.568573 200 22960ft 203kts
05-Feb-18 12:09 38.425973 -98.574082 200 22960ft 203kts
05-Feb-18 12:10 38.370066 -98.579554 200 22933ft 202kts
05-Feb-18 12:11 38.314059 -98.585063 200 22933ft 202kts
05-Feb-18 12:12 38.258074 -98.590533 200 22933ft 202kts
05-Feb-18 12:13 38.202233 -98.595983 200 22933ft 202kts
05-Feb-18 12:14 38.146366 -98.601427 200 22933ft 202kts
05-Feb-18 12:15 38.090375 -98.606876 200 22933ft 202kts
05-Feb-18 12:16 38.034565 -98.612278 199 22931ft 200kts
05-Feb-18 12:17 37.979038 -98.617684 200 22933ft 201kts
05-Feb-18 12:18 37.923364 -98.623087 200 22933ft 201kts
05-Feb-18 12:19 37.867639 -98.628465 200 22932ft 201kts
05-Feb-18 12:20 37.811763 -98.633852 200 22932ft 201kts
05-Feb-18 12:21 37.756059 -98.639221 200 22932ft 201kts
05-Feb-18 12:22 37.700256 -98.644593 199 22935ft 201kts
05-Feb-18 12:23 37.644783 -98.649920 200 22932ft 200kts
05-Feb-18 12:24 37.589721 -98.655260 199 22944ft 203kts
05-Feb-18 12:25 37.533129 -98.660674 199 22944ft 205kts
05-Feb-18 12:26 37.476014 -98.666118 199 22944ft 206kts
05-Feb-18 12:27 37.418801 -98.671573 199 22944ft 206kts
05-Feb-18 12:28 37.361910 -98.676964 198 22972ft 204kts
05-Feb-18 12:29 37.305098 -98.682409 199 22971ft 205kts
05-Feb-18 12:30 37.248119 -98.687838 199 22971ft 206kts
05-Feb-18 12:31 37.191015 -98.693250 199 22971ft 206kts
05-Feb-18 12:32 37.133790 -98.698672 199 22971ft 206kts
05-Feb-18 12:33 37.076534 -98.704091 199 22970ft 207kts
05-Feb-18 12:34 37.019246 -98.709506 199 22970ft 207kts
05-Feb-18 12:35 36.962392 -98.714850 199 22970ft 205kts
05-Feb-18 12:36 36.905470 -98.720250 199 22970ft 206kts
05-Feb-18 12:37 36.848686 -98.725591 199 22970ft 206kts
05-Feb-18 12:38 36.791382 -98.730972 199 22970ft 206kts
05-Feb-18 12:39 36.734253 -98.736331 199 22970ft 206kts
05-Feb-18 12:40 36.677239 -98.741666 199 22970ft 206kts
05-Feb-18 12:41 36.620268 -98.746974 198 22970ft 204kts
05-Feb-18 12:42 36.563507 -98.752299 199 22970ft 205kts
05-Feb-18 12:43 36.506759 -98.757601 199 22970ft 205kts
05-Feb-18 12:44 36.449845 -98.762898 199 22970ft 205kts
05-Feb-18 12:45 36.393071 -98.768175 199 22970ft 205kts
05-Feb-18 12:46 36.336066 -98.773466 199 22969ft 205kts
05-Feb-18 12:47 36.279232 -98.778735 199 22969ft 205kts
05-Feb-18 12:48 36.222413 -98.783996 199 22969ft 205kts
05-Feb-18 12:49 36.165827 -98.789194 199 23020ft 203kts
05-Feb-18 12:50 36.109339 -98.794438 199 23023ft 204kts
05-Feb-18 12:51 36.052499 -98.799683 199 23023ft 205kts
05-Feb-18 12:52 35.995650 -98.804907 199 23023ft 205kts
05-Feb-18 12:53 35.938881 -98.810123 199 23023ft 205kts
05-Feb-18 12:54 35.881981 -98.815344 199 23023ft 205kts
05-Feb-18 12:56 35.825171 -98.820550 199 23023ft 205kts
05-Feb-18 12:57 35.768416 -98.825760 199 22997ft 206kts
05-Feb-18 12:58 35.711252 -98.830964 199 22996ft 206kts
05-Feb-18 12:59 35.654345 -98.836153 199 22996ft 205kts
05-Feb-18 13:00 35.597481 -98.841321 196 22995ft 203kts
05-Feb-18 13:01 35.541243 -98.846437 196 22995ft 202kts
05-Feb-18 13:02 35.485486 -98.851516 196 22995ft 201kts
05-Feb-18 13:03 35.429573 -98.856593 196 22995ft 201kts
05-Feb-18 13:04 35.376258 -98.860825 197 24208ft 183kts
05-Feb-18 13:05 35.325075 -98.864616 192 25002ft 207kts
05-Feb-18 13:06 35.262330 -98.863814 189 24997ft 239kts
05-Feb-18 13:07 35.194263 -98.862377 189 24997ft 250kts
05-Feb-18 13:08 35.124227 -98.861010 189 25022ft 254kts
05-Feb-18 13:09 35.053510 -98.859707 189 25021ft 256kts
05-Feb-18 13:10 34.982388 -98.858408 189 25021ft 256kts
05-Feb-18 13:11 34.913775 -98.857273 190 25017ft 231kts
05-Feb-18 13:12 34.852814 -98.856195 191 25021ft 212kts
05-Feb-18 13:13 34.795225 -98.855245 191 25022ft 203kts
05-Feb-18 13:14 34.739439 -98.854313 192 25022ft 198kts
05-Feb-18 13:15 34.684666 -98.853367 192 25022ft 196kts
05-Feb-18 13:16 34.630359 -98.852409 192 25022ft 195kts
05-Feb-18 13:17 34.576517 -98.851448 192 25022ft 194kts
05-Feb-18 13:18 34.522594 -98.850481 192 25022ft 194kts
05-Feb-18 13:19 34.468815 -98.849516 192 25022ft 193kts
05-Feb-18 13:20 34.415038 -98.848555 192 25022ft 193kts
05-Feb-18 13:21 34.361373 -98.847597 192 25022ft 193kts
05-Feb-18 13:22 34.307724 -98.846639 192 25022ft 193kts
05-Feb-18 13:23 34.253779 -98.845677 192 25022ft 194kts
05-Feb-18 13:24 34.199878 -98.844719 192 25022ft 194kts
05-Feb-18 13:25 34.145859 -98.843758 192 25022ft 194kts
05-Feb-18 13:26 34.092055 -98.842799 192 25021ft 193kts
05-Feb-18 13:27 34.038583 -98.841843 192 25022ft 192kts
05-Feb-18 13:28 33.985541 -98.840896 192 25051ft 190kts
05-Feb-18 13:28 33.941859 -98.840107 192 25076ft 188kts
05-Feb-18 13:30 33.889507 -98.839211 192 25077ft 189kts
05-Feb-18 13:31 33.854513 -98.838599 192 25077ft 190kts
05-Feb-18 13:31 33.810470 -98.837826 192 25077ft 190kts
05-Feb-18 13:33 33.749095 -98.836712 192 25131ft 189kts
05-Feb-18 13:34 33.696446 -98.835815 192 25131ft 190kts
05-Feb-18 13:34 33.652506 -98.835046 192 25128ft 191kts
05-Feb-18 13:35 33.599103 -98.834119 191 25104ft 192kts
05-Feb-18 13:36 33.545795 -98.833169 191 25104ft 192kts
05-Feb-18 13:38 33.483580 -98.832079 191 25103ft 192kts
05-Feb-18 13:38 33.439175 -98.831302 191 25103ft 192kts
05-Feb-18 13:39 33.386049 -98.830383 191 25076ft 193kts
05-Feb-18 13:40 33.332079 -98.829451 191 25049ft 193kts
05-Feb-18 13:41 33.278569 -98.828498 191 25049ft 193kts
05-Feb-18 13:42 33.225240 -98.827570 191 25049ft 192kts
05-Feb-18 13:43 33.171868 -98.826643 191 25049ft 192kts
05-Feb-18 13:44 33.118603 -98.825718 191 25049ft 192kts
05-Feb-18 13:45 33.065344 -98.824795 191 25049ft 192kts
05-Feb-18 13:46 33.011996 -98.823871 191 25049ft 192kts
05-Feb-18 13:47 32.958757 -98.822950 191 25049ft 192kts
05-Feb-18 13:48 32.905527 -98.822031 191 25049ft 192kts
05-Feb-18 13:49 32.853106 -98.821131 191 25050ft 193kts
05-Feb-18 13:50 32.799590 -98.820210 190 25050ft 193kts
05-Feb-18 13:51 32.745614 -98.819288 190 25023ft 195kts
05-Feb-18 13:52 32.691606 -98.818348 190 25023ft 194kts
05-Feb-18 13:53 32.637741 -98.817423 190 25023ft 193kts
05-Feb-18 13:54 32.584032 -98.816502 190 25023ft 193kts
05-Feb-18 13:55 32.530269 -98.815582 190 25023ft 193kts
05-Feb-18 13:56 32.476426 -98.814661 190 25022ft 193kts
05-Feb-18 13:57 32.422731 -98.813743 190 25022ft 194kts
05-Feb-18 13:58 32.369118 -98.812818 187 25046ft 193kts
05-Feb-18 13:59 32.315360 -98.811903 190 25049ft 194kts
05-Feb-18 14:00 32.261447 -98.810991 190 25049ft 194kts
05-Feb-18 14:01 32.207522 -98.810073 190 25049ft 194kts
05-Feb-18 14:02 32.153641 -98.809157 190 25049ft 194kts
05-Feb-18 14:03 32.099751 -98.808242 190 25049ft 194kts
05-Feb-18 14:04 32.045865 -98.807328 190 25049ft 194kts
05-Feb-18 14:05 31.992049 -98.806416 190 25056ft 194kts
05-Feb-18 14:06 31.938529 -98.805490 190 25103ft 192kts
05-Feb-18 14:07 31.885861 -98.804639 187 25082ft 195kts
05-Feb-18 14:08 31.851065 -98.804055 186 25077ft 196kts
05-Feb-18 14:09 31.796674 -98.803120 186 25077ft 196kts
05-Feb-18 14:10 31.742847 -98.802173 186 25183ft 192kts
05-Feb-18 14:11 31.689182 -98.801299 186 25184ft 194kts
05-Feb-18 14:12 31.635099 -98.800397 186 25184ft 195kts
05-Feb-18 14:13 31.580623 -98.799507 186 25106ft 200kts
05-Feb-18 14:14 31.524969 -98.798571 186 25076ft 199kts
05-Feb-18 14:15 31.469734 -98.797633 186 25076ft 198kts
05-Feb-18 14:16 31.414726 -98.796710 186 25076ft 198kts
05-Feb-18 14:17 31.360069 -98.795796 186 25076ft 197kts
05-Feb-18 14:18 31.305231 -98.794881 186 25076ft 197kts
05-Feb-18 14:19 31.250480 -98.793968 186 25076ft 197kts
05-Feb-18 14:20 31.195767 -98.793057 186 25076ft 197kts
05-Feb-18 14:21 31.140999 -98.792146 186 25076ft 197kts
05-Feb-18 14:22 31.086367 -98.791238 186 25076ft 197kts
05-Feb-18 14:23 31.031518 -98.790328 186 25076ft 197kts
05-Feb-18 14:24 30.977097 -98.789415 186 25116ft 195kts
05-Feb-18 14:25 30.923007 -98.788522 186 25119ft 196kts
05-Feb-18 14:26 30.894338 -98.788064 186 25105ft 197kts
05-Feb-18 14:27 30.894338 -98.788064 186 25105ft 197kts
05-Feb-18 14:28 30.894338 -98.788064 186 25105ft 197kts
05-Feb-18 14:29 30.894338 -98.788064 186 25105ft 197kts
05-Feb-18 14:30 30.894338 -98.788064 186 25105ft 197kts
05-Feb-18 14:31 30.894338 -98.788064 186 25105ft 197kts
05-Feb-18 14:32 30.894338 -98.788064 186 25105ft 197kts
05-Feb-18 14:33 30.894338 -98.788064 186 25105ft 197kts
05-Feb-18 14:34 30.894338 -98.788064 186 25105ft 197kts
05-Feb-18 14:35 30.894338 -98.788064 186 25105ft 197kts
05-Feb-18 14:36 30.894338 -98.788064 186 25105ft 197kts
05-Feb-18 14:37 30.894338 -98.788064 186 25105ft 197kts
05-Feb-18 14:38 30.894338 -98.788064 186 25105ft 197kts
05-Feb-18 14:39 30.894338 -98.788064 186 25105ft 197kts
05-Feb-18 14:40 30.894338 -98.788064 186 25105ft 197kts
05-Feb-18 14:41 30.894338 -98.788064 186 25105ft 197kts
05-Feb-18 14:42 30.894338 -98.788064 186 25105ft 197kts
05-Feb-18 14:43 30.894338 -98.788064 186 25105ft 197kts
05-Feb-18 14:44 30.894338 -98.788064 186 25105ft 197kts
05-Feb-18 14:45 30.894338 -98.788064 186 25105ft 197kts
05-Feb-18 14:46 30.894338 -98.788064 186 25105ft 197kts
05-Feb-18 14:47 30.894338 -98.788064 186 25105ft 197kts
05-Feb-18 14:48 30.894338 -98.788064 186 25105ft 197kts
05-Feb-18 14:49 30.894338 -98.788064 186 25105ft 197kts
05-Feb-18 14:50 30.894338 -98.788064 186 25105ft 197kts
05-Feb-18 14:51 30.894338 -98.788064 186 25105ft 197kts
05-Feb-18 14:52 30.894338 -98.788064 186 25105ft 197kts
05-Feb-18 14:53 30.894338 -98.788064 186 25105ft 197kts
05-Feb-18 14:54 30.894338 -98.788064 186 25105ft 197kts
05-Feb-18 14:55 30.894338 -98.788064 186 25105ft 197kts
05-Feb-18 14:56 30.894338 -98.788064 186 25105ft 197kts
05-Feb-18 14:57 30.894338 -98.788064 186 25105ft 197kts
05-Feb-18 14:58 30.894338 -98.788064 186 25105ft 197kts
05-Feb-18 14:59 30.894338 -98.788064 186 25105ft 197kts
05-Feb-18 15:00 30.894338 -98.788064 186 25105ft 197kts
05-Feb-18 15:01 30.894338 -98.788064 186 25105ft 197kts
05-Feb-18 15:02 30.894338 -98.788064 186 25105ft 197kts
05-Feb-18 15:03 30.894338 -98.788064 186 25105ft 197kts
05-Feb-18 15:04 30.894338 -98.788064 186 25105ft 197kts
05-Feb-18 15:06 30.894338 -98.788064 186 25105ft 197kts
05-Feb-18 15:07 30.894338 -98.788064 186 25105ft 197kts
05-Feb-18 15:08 30.894338 -98.788064 186 25105ft 197kts
05-Feb-18 15:09 30.894338 -98.788064 186 25105ft 197kts
05-Feb-18 15:10 30.894338 -98.788064 186 25105ft 197kts
05-Feb-18 15:11 30.894338 -98.788064 186 25105ft 197kts
05-Feb-18 15:12 30.894338 -98.788064 186 25105ft 197kts
05-Feb-18 15:13 30.894338 -98.788064 186 25105ft 197kts
05-Feb-18 15:14 30.894338 -98.788064 186 25105ft 197kts
05-Feb-18 15:15 30.894338 -98.788064 186 25105ft 197kts
05-Feb-18 15:16 30.894338 -98.788064 186 25105ft 197kts
05-Feb-18 15:17 30.894338 -98.788064 186 25105ft 197kts
05-Feb-18 15:18 30.894338 -98.788064 186 25105ft 197kts
05-Feb-18 15:19 30.894338 -98.788064 186 25105ft 197kts
05-Feb-18 15:20 30.894338 -98.788064 186 25105ft 197kts
05-Feb-18 15:21 30.894338 -98.788064 186 25105ft 197kts
05-Feb-18 15:22 30.894338 -98.788064 186 25105ft 197kts
05-Feb-18 15:23 30.894338 -98.788064 186 25105ft 197kts
05-Feb-18 15:24 30.894338 -98.788064 186 25105ft 197kts
05-Feb-18 15:25 30.894338 -98.788064 186 25105ft 197kts
05-Feb-18 15:26 30.894338 -98.788064 186 25105ft 197kts
05-Feb-18 15:27 30.894338 -98.788064 186 25105ft 197kts
05-Feb-18 15:28 30.894338 -98.788064 186 25105ft 197kts
05-Feb-18 15:29 30.894338 -98.788064 186 25105ft 197kts
05-Feb-18 15:30 30.894338 -98.788064 186 25105ft 197kts
05-Feb-18 15:31 30.894338 -98.788064 186 25105ft 197kts
05-Feb-18 15:32 30.894338 -98.788064 186 25105ft 197kts
05-Feb-18 15:33 30.894338 -98.788064 186 25105ft 197kts
05-Feb-18 15:34 30.894338 -98.788064 186 25105ft 197kts
05-Feb-18 15:35 30.894338 -98.788064 186 25105ft 197kts
05-Feb-18 15:36 30.894338 -98.788064 186 25105ft 197kts
05-Feb-18 15:37 30.894338 -98.788064 186 25105ft 197kts
05-Feb-18 15:38 30.894338 -98.788064 186 25105ft 197kts
05-Feb-18 15:39 30.894338 -98.788064 186 25105ft 197kts
05-Feb-18 15:40 30.894338 -98.788064 186 25105ft 197kts
05-Feb-18 15:41 30.894338 -98.788064 186 25105ft 197kts
05-Feb-18 15:42 30.894338 -98.788064 186 25105ft 197kts
05-Feb-18 15:42 30.894338 -98.788064 186 25105ft 197kts
05-Feb-18 15:44 30.894338 -98.788064 186 25105ft 197kts
05-Feb-18 15:44 30.894338 -98.788064 186 25105ft 197kts
05-Feb-18 15:46 30.894338 -98.788064 186 25105ft 197kts
05-Feb-18 15:47 30.894338 -98.788064 186 25105ft 197kts
05-Feb-18 15:47 30.894338 -98.788064 186 25105ft 197kts
05-Feb-18 15:48 30.894338 -98.788064 186 25105ft 197kts
05-Feb-18 15:49 30.894338 -98.788064 186 25105ft 197kts
05-Feb-18 15:50 30.894338 -98.788064 186 25105ft 197kts
05-Feb-18 15:51 30.894338 -98.788064 186 25105ft 197kts
05-Feb-18 15:52 30.894338 -98.788064 186 25105ft 197kts
05-Feb-18 15:53 30.894338 -98.788064 186 25105ft 197kts
05-Feb-18 15:54 30.894338 -98.788064 186 25105ft 197kts
05-Feb-18 15:55 30.894338 -98.788064 186 25105ft 197kts
05-Feb-18 15:56 30.894338 -98.788064 186 25105ft 197kts
05-Feb-18 15:57 30.894338 -98.788064 186 25105ft 197kts
05-Feb-18 15:58 30.894338 -98.788064 186 25105ft 197kts
05-Feb-18 15:59 30.844324 -98.786996 184 25108ft 228kts
05-Feb-18 16:00 30.778487 -98.789993 195 25105ft 243kts
05-Feb-18 16:01 30.710730 -98.804438 195 25103ft 251kts
05-Feb-18 16:02 30.642254 -98.819095 195 25089ft 254kts
05-Feb-18 16:03 30.573003 -98.833877 195 25076ft 254kts
05-Feb-18 16:04 30.503717 -98.848637 195 25075ft 253kts
05-Feb-18 16:05 30.434526 -98.863358 195 25075ft 253kts
05-Feb-18 16:06 30.365453 -98.878037 195 25051ft 254kts
05-Feb-18 16:07 30.296020 -98.892767 195 25048ft 254kts
05-Feb-18 16:08 30.226845 -98.907420 195 25048ft 254kts
05-Feb-18 16:09 30.157596 -98.922069 195 25048ft 253kts
05-Feb-18 16:10 30.088143 -98.936741 195 25047ft 253kts
05-Feb-18 16:11 30.019006 -98.951323 195 25047ft 253kts
05-Feb-18 16:12 29.949752 -98.965905 195 25047ft 253kts
05-Feb-18 16:13 29.881309 -98.980300 197 25048ft 253kts
05-Feb-18 16:14 29.820213 -98.993140 197 25048ft 253kts
05-Feb-18 16:15 29.751400 -99.007573 197 25049ft 253kts
05-Feb-18 16:16 29.682647 -99.021983 197 25047ft 252kts
05-Feb-18 16:17 29.613762 -99.036398 197 25047ft 251kts
05-Feb-18 16:18 29.545477 -99.050644 197 25101ft 249kts
05-Feb-18 16:19 29.477269 -99.064887 197 25101ft 251kts
05-Feb-18 16:20 29.408641 -99.079184 197 25101ft 251kts
05-Feb-18 16:21 29.340104 -99.093438 197 25101ft 251kts
05-Feb-18 16:22 29.271269 -99.107740 197 25101ft 251kts
05-Feb-18 16:23 29.202682 -99.121967 197 25100ft 251kts
05-Feb-18 16:24 29.132117 -99.136728 196 24374ft 271kts
05-Feb-18 16:25 29.056457 -99.152460 196 23168ft 278kts
05-Feb-18 16:26 28.981247 -99.167992 196 21956ft 274kts
05-Feb-18 16:27 28.906831 -99.183333 196 20740ft 271kts
05-Feb-18 16:28 28.834776 -99.198172 196 19555ft 267kts
05-Feb-18 16:29 28.762243 -99.213092 196 18390ft 263kts
05-Feb-18 16:30 28.691560 -99.227542 195 17581ft 257kts
05-Feb-18 16:31 28.621534 -99.241909 195 16770ft 255kts
05-Feb-18 16:32 28.551041 -99.256287 195 15963ft 262kts
05-Feb-18 16:33 28.478419 -99.269213 182 15156ft 270kts
05-Feb-18 16:34 28.404391 -99.253449 173 14358ft 274kts
05-Feb-18 16:35 28.329799 -99.238147 175 13543ft 272kts
05-Feb-18 16:36 28.255243 -99.224755 175 12730ft 271kts
05-Feb-18 16:37 28.181091 -99.211931 175 11918ft 270kts
05-Feb-18 16:38 28.107431 -99.199763 175 11107ft 267kts
05-Feb-18 16:39 28.034657 -99.188272 175 10276ft 261kts
05-Feb-18 16:40 27.963773 -99.181199 179 9412ft 252kts
05-Feb-18 16:41 27.896251 -99.176574 177 8445ft 246kts
05-Feb-18 16:42 27.831415 -99.172378 175 7519ft 247kts
05-Feb-18 16:43 27.763010 -99.167163 175 6534ft 248kts
05-Feb-18 16:44 27.696243 -99.163162 176 5336ft 233kts
05-Feb-18 16:45 27.632430 -99.158920 175 3995ft 227kts
05-Feb-18 16:46 27.570693 -99.155080 175 2511ft 223kts
05-Feb-18 16:47 27.513829 -99.159060 196 2406ft 183kts
05-Feb-18 16:48 27.476047 -99.178531 215 1690ft 121kts
05-Feb-18 16:49 27.450312 -99.189250 169 756ft 107kts
05-Feb-18 16:50 27.433253 -99.185818 170 512ft 34kts
05-Feb-18 16:51 27.431829 -99.185563 173 512ft 0kts

Navigation Log

Ident Type
Flight plan parsing failed, navigation log unavailable